createdAt,value
2022-12-16T00:02:01.439Z,8.30
2022-12-16T00:04:29.570Z,9.57
2022-12-16T00:06:57.576Z,9.70
2022-12-16T00:09:25.312Z,6.83
2022-12-16T00:11:53.130Z,7.40
2022-12-16T00:14:23.843Z,7.23
2022-12-16T00:16:51.882Z,6.50
2022-12-16T00:19:20.405Z,8.53
2022-12-16T00:21:48.189Z,7.93
2022-12-16T00:24:15.948Z,7.20
2022-12-16T00:26:43.734Z,8.60
2022-12-16T00:29:13.887Z,8.00
2022-12-16T00:31:48.236Z,8.00
2022-12-16T00:34:16.513Z,8.03
2022-12-16T00:36:44.968Z,7.70
2022-12-16T00:39:13.053Z,8.13
2022-12-16T00:41:40.873Z,8.07
2022-12-16T00:44:12.495Z,7.73
2022-12-16T00:46:40.836Z,7.23
2022-12-16T00:49:10.235Z,7.07
2022-12-16T00:51:38.137Z,7.90
2022-12-16T00:54:06.110Z,8.33
2022-12-16T00:56:37.210Z,7.13
2022-12-16T00:59:04.920Z,6.53
2022-12-16T01:01:32.904Z,6.77
2022-12-16T01:04:01.420Z,7.40
2022-12-16T01:06:30.498Z,7.47
2022-12-16T01:08:58.813Z,7.90
2022-12-16T01:11:26.589Z,7.43
2022-12-16T01:13:55.236Z,7.20
2022-12-16T01:16:23.536Z,7.50
2022-12-16T01:18:51.688Z,8.17
2022-12-16T01:21:19.483Z,7.77
2022-12-16T01:23:49.896Z,7.73
2022-12-16T01:26:19.327Z,8.23
2022-12-16T01:28:49.934Z,7.50
2022-12-16T01:31:19.196Z,7.00
2022-12-16T01:33:47.819Z,7.20
2022-12-16T01:36:15.617Z,7.33
2022-12-16T01:38:45.193Z,6.77
2022-12-16T01:41:15.564Z,5.57
2022-12-16T01:43:44.840Z,7.63
2022-12-16T01:46:20.243Z,7.00
2022-12-16T01:48:51.760Z,6.50
2022-12-16T01:51:26.211Z,5.10
2022-12-16T01:53:58.918Z,6.73
2022-12-16T01:56:31.506Z,5.60
2022-12-16T01:59:01.499Z,5.03
2022-12-16T02:01:29.559Z,7.77
2022-12-16T02:04:01.869Z,8.40
2022-12-16T02:06:30.598Z,7.50
2022-12-16T02:09:01.590Z,7.57
2022-12-16T02:11:49.274Z,6.97
2022-12-16T02:14:31.111Z,7.70
2022-12-16T02:17:06.689Z,6.33
2022-12-16T02:20:00.548Z,7.73
2022-12-16T02:22:40.180Z,7.07
2022-12-16T02:25:36.722Z,6.50
2022-12-16T02:28:11.391Z,7.40
2022-12-16T02:30:56.417Z,7.27
2022-12-16T02:33:45.980Z,8.10
2022-12-16T02:36:23.196Z,7.70
2022-12-16T02:38:58.871Z,7.47
2022-12-16T02:41:33.269Z,6.83
2022-12-16T02:44:05.945Z,7.13
2022-12-16T02:46:40.321Z,7.40
2022-12-16T02:49:09.668Z,7.70
2022-12-16T02:51:39.337Z,7.10
2022-12-16T02:54:09.179Z,6.80
2022-12-16T02:56:51.399Z,6.83
2022-12-16T02:59:25.783Z,5.90
2022-12-16T03:02:00.072Z,6.87
2022-12-16T03:04:38.004Z,7.17
2022-12-16T03:07:08.852Z,6.20
2022-12-16T03:09:40.005Z,6.83
2022-12-16T03:12:12.765Z,7.20
2022-12-16T03:14:44.416Z,6.93
2022-12-16T03:17:15.224Z,6.87
2022-12-16T03:19:47.386Z,5.77
2022-12-16T03:22:20.544Z,6.43
2022-12-16T03:24:49.415Z,6.03
2022-12-16T03:27:21.803Z,5.53
2022-12-16T03:29:59.995Z,6.40
2022-12-16T03:32:37.114Z,5.37
2022-12-16T03:35:13.541Z,6.23
2022-12-16T03:37:44.264Z,5.83
2022-12-16T03:40:13.658Z,5.37
2022-12-16T03:42:43.383Z,6.27
2022-12-16T03:45:17.879Z,6.03
2022-12-16T03:47:51.281Z,6.03
2022-12-16T03:50:25.015Z,4.63
2022-12-16T03:52:52.833Z,5.20
2022-12-16T03:55:20.664Z,6.27
2022-12-16T03:57:48.396Z,5.97
2022-12-16T04:00:16.767Z,4.43
2022-12-16T04:02:44.823Z,5.57
2022-12-16T04:05:14.697Z,5.90
2022-12-16T04:07:42.819Z,6.53
2022-12-16T04:10:11.313Z,6.33
2022-12-16T04:12:56.950Z,5.57
2022-12-16T04:15:42.751Z,6.30
2022-12-16T04:18:32.156Z,5.37
2022-12-16T04:21:19.281Z,5.60
2022-12-16T04:24:07.901Z,6.17
2022-12-16T04:26:56.834Z,6.83
2022-12-16T04:29:25.177Z,6.17
2022-12-16T04:31:53.902Z,5.60
2022-12-16T04:34:29.037Z,5.93
2022-12-16T04:37:18.688Z,5.33
2022-12-16T04:40:04.400Z,4.87
2022-12-16T04:42:50.420Z,4.67
2022-12-16T04:45:36.317Z,4.83
2022-12-16T04:48:25.080Z,4.57
2022-12-16T04:51:10.309Z,5.87
2022-12-16T04:57:11.905Z,5.40
2022-12-16T04:59:57.661Z,6.60
2022-12-16T05:02:43.188Z,4.63
2022-12-16T05:05:28.976Z,6.37
2022-12-16T05:08:14.195Z,5.70
2022-12-16T05:11:00.693Z,5.50
2022-12-16T05:13:45.913Z,5.87
2022-12-16T05:16:31.233Z,5.37
2022-12-16T05:19:16.343Z,6.00
2022-12-16T05:22:02.037Z,4.97
2022-12-16T05:24:52.883Z,6.20
2022-12-16T05:27:40.055Z,6.17
2022-12-16T05:30:32.000Z,6.70
2022-12-16T05:33:19.118Z,5.80
2022-12-16T05:36:04.491Z,5.70
2022-12-16T05:38:49.571Z,6.10
2022-12-16T05:41:35.140Z,5.80
2022-12-16T05:44:22.092Z,5.67
2022-12-16T05:47:07.562Z,5.97
2022-12-16T05:49:52.946Z,6.00
2022-12-16T05:52:37.808Z,6.33
2022-12-16T05:55:25.181Z,6.13
2022-12-16T05:58:13.507Z,6.07
2022-12-16T06:01:00.170Z,6.23
2022-12-16T06:03:45.438Z,5.93
2022-12-16T06:06:33.693Z,5.63
2022-12-16T06:09:24.149Z,5.70
2022-12-16T06:12:10.648Z,5.83
2022-12-16T06:14:59.066Z,6.40
2022-12-16T06:17:45.831Z,5.63
2022-12-16T06:20:30.887Z,6.03
2022-12-16T06:23:19.879Z,5.50
2022-12-16T06:26:08.096Z,5.73
2022-12-16T06:28:53.439Z,5.90
2022-12-16T06:31:38.840Z,6.20
2022-12-16T06:34:25.492Z,5.60
2022-12-16T06:37:10.770Z,6.30
2022-12-16T06:39:56.417Z,6.10
2022-12-16T06:42:41.746Z,6.60
2022-12-16T06:45:34.329Z,6.43
2022-12-16T06:48:20.386Z,6.73
2022-12-16T06:51:07.686Z,5.90
2022-12-16T06:53:52.978Z,6.37
2022-12-16T06:56:38.255Z,7.00
2022-12-16T06:59:24.298Z,6.80
2022-12-16T07:02:09.830Z,6.67
2022-12-16T07:04:55.193Z,6.40
2022-12-16T07:07:41.821Z,5.80
2022-12-16T07:10:27.793Z,6.50
2022-12-16T07:13:16.351Z,6.47
2022-12-16T07:16:01.692Z,6.37
2022-12-16T07:18:47.141Z,5.80
2022-12-16T07:21:32.412Z,6.27
2022-12-16T07:24:19.202Z,6.00
2022-12-16T07:27:04.557Z,7.13
2022-12-16T07:29:52.935Z,7.60
2022-12-16T07:32:38.199Z,7.40
2022-12-16T07:35:24.283Z,7.40
2022-12-16T07:38:10.656Z,7.07
2022-12-16T07:40:58.081Z,6.93
2022-12-16T07:43:43.524Z,6.50
2022-12-16T07:46:28.812Z,7.13
2022-12-16T07:49:14.161Z,7.37
2022-12-16T07:52:00.145Z,8.03
2022-12-16T07:54:45.775Z,7.47
2022-12-16T07:57:33.155Z,7.07
2022-12-16T08:00:18.557Z,6.53
2022-12-16T08:03:03.995Z,7.63
2022-12-16T08:05:49.782Z,7.47
2022-12-16T08:08:35.259Z,5.67
2022-12-16T08:11:20.752Z,5.80
2022-12-16T08:14:07.448Z,5.63
2022-12-16T08:16:52.824Z,5.90
2022-12-16T08:19:38.379Z,5.90
2022-12-16T08:22:23.577Z,7.10
2022-12-16T08:25:08.962Z,6.10
2022-12-16T08:27:54.519Z,5.97
2022-12-16T08:30:43.223Z,5.43
2022-12-16T08:33:28.689Z,5.80
2022-12-16T08:36:15.783Z,7.77
2022-12-16T08:39:01.182Z,5.87
2022-12-16T08:41:46.149Z,6.00
2022-12-16T08:44:31.629Z,5.77
2022-12-16T08:47:18.399Z,5.20
2022-12-16T08:50:03.857Z,6.37
2022-12-16T08:52:49.169Z,6.37
2022-12-16T08:55:34.617Z,5.93
2022-12-16T08:58:20.333Z,6.53
2022-12-16T09:01:07.775Z,6.60
2022-12-16T09:03:56.347Z,6.30
2022-12-16T09:06:41.677Z,5.90
2022-12-16T09:09:30.094Z,5.47
2022-12-16T09:12:15.456Z,5.67
2022-12-16T09:15:00.552Z,6.47
2022-12-16T09:17:46.014Z,6.20
2022-12-16T09:20:33.025Z,4.90
2022-12-16T09:23:20.827Z,6.53
2022-12-16T09:26:05.962Z,6.27
2022-12-16T09:28:51.423Z,5.63
2022-12-16T09:31:36.902Z,5.90
2022-12-16T09:34:22.578Z,6.23
2022-12-16T09:37:09.067Z,6.07
2022-12-16T09:39:54.727Z,6.60
2022-12-16T09:42:47.207Z,6.47
2022-12-16T09:45:39.380Z,4.53
2022-12-16T09:48:46.994Z,5.80
2022-12-16T09:51:44.811Z,5.27
2022-12-16T09:54:36.136Z,6.13
2022-12-16T09:57:23.379Z,6.10
2022-12-16T10:00:16.295Z,5.80
2022-12-16T10:03:06.993Z,6.57
2022-12-16T10:06:05.574Z,6.20
2022-12-16T10:09:00.016Z,6.00
2022-12-16T10:12:07.680Z,5.10
2022-12-16T10:15:03.601Z,6.30
2022-12-16T10:17:49.403Z,6.20
2022-12-16T10:20:48.846Z,5.40
2022-12-16T10:23:41.783Z,7.00
2022-12-16T10:26:36.830Z,5.50
2022-12-16T10:29:31.502Z,5.60
2022-12-16T10:32:18.627Z,5.27
2022-12-16T10:35:04.406Z,6.13
2022-12-16T10:37:53.520Z,5.80
2022-12-16T10:40:43.690Z,5.27
2022-12-16T10:43:35.338Z,5.87
2022-12-16T10:46:29.330Z,5.80
2022-12-16T10:49:14.939Z,8.13
2022-12-16T10:52:05.268Z,6.83
2022-12-16T10:54:58.700Z,6.00
2022-12-16T10:57:57.820Z,5.40
2022-12-16T11:00:58.668Z,4.97
2022-12-16T11:03:59.521Z,5.57
2022-12-16T11:06:48.570Z,7.70
2022-12-16T11:09:40.399Z,5.80
2022-12-16T11:12:39.563Z,6.43
2022-12-16T11:15:41.817Z,6.57
2022-12-16T11:18:28.177Z,7.80
2022-12-16T11:21:29.872Z,7.33
2022-12-16T11:24:30.356Z,6.77
2022-12-16T11:27:18.612Z,7.03
2022-12-16T11:30:13.536Z,7.37
2022-12-16T11:33:06.239Z,7.10
2022-12-16T11:35:56.150Z,7.63
2022-12-16T11:38:46.049Z,6.97
2022-12-16T11:41:42.448Z,6.07
2022-12-16T11:44:35.415Z,7.00
2022-12-16T11:47:20.630Z,5.97
2022-12-16T11:50:05.830Z,7.20
2022-12-16T11:52:51.772Z,5.63
2022-12-16T11:58:58.300Z,5.87
2022-12-16T12:01:49.299Z,5.30
2022-12-16T12:04:35.280Z,5.47
2022-12-16T12:07:44.279Z,7.97
2022-12-16T12:10:46.810Z,6.73
2022-12-16T12:13:46.904Z,5.63
2022-12-16T12:16:41.427Z,6.93
2022-12-16T12:19:34.277Z,6.57
2022-12-16T12:22:23.322Z,5.70
2022-12-16T12:25:17.213Z,8.00
2022-12-16T12:28:16.151Z,7.30
2022-12-16T12:31:09.025Z,7.57
2022-12-16T12:33:56.153Z,7.67
2022-12-16T12:36:50.813Z,7.03
2022-12-16T12:39:41.738Z,8.60
2022-12-16T12:42:45.691Z,8.13
2022-12-16T12:45:49.003Z,5.10
2022-12-16T12:48:40.944Z,6.03
2022-12-16T12:51:33.338Z,6.20
2022-12-16T12:54:33.106Z,6.43
2022-12-16T12:57:22.212Z,5.77
2022-12-16T13:00:16.048Z,6.53
2022-12-16T13:03:11.265Z,6.53
2022-12-16T13:05:58.119Z,6.17
2022-12-16T13:09:00.690Z,6.47
2022-12-16T13:11:46.606Z,7.90
2022-12-16T13:15:03.462Z,6.07
2022-12-16T13:18:27.752Z,5.53
2022-12-16T13:21:16.949Z,5.93
2022-12-16T13:24:03.935Z,6.17
2022-12-16T13:26:51.320Z,4.73
2022-12-16T13:29:41.639Z,6.60
2022-12-16T13:32:37.566Z,6.00
2022-12-16T13:35:35.475Z,4.33
2022-12-16T13:38:24.719Z,6.83
2022-12-16T13:41:16.246Z,5.87
2022-12-16T13:44:06.921Z,6.57
2022-12-16T13:47:09.870Z,6.63
2022-12-16T13:50:04.674Z,6.17
2022-12-16T13:53:02.783Z,6.53
2022-12-16T13:56:00.631Z,5.33
2022-12-16T13:59:03.150Z,6.90
2022-12-16T14:01:57.434Z,6.30
2022-12-16T14:04:45.831Z,4.27
2022-12-16T14:07:33.415Z,6.87
2022-12-16T14:10:19.912Z,6.00
2022-12-16T14:13:19.155Z,6.23
2022-12-16T14:16:15.024Z,6.57
2022-12-16T14:19:14.997Z,6.20
2022-12-16T14:22:08.906Z,6.77
2022-12-16T14:24:57.395Z,4.40
2022-12-16T14:27:44.312Z,5.90
2022-12-16T14:30:39.393Z,7.07
2022-12-16T14:33:36.329Z,6.07
2022-12-16T14:36:21.843Z,6.87
2022-12-16T14:39:08.637Z,6.70
2022-12-16T14:41:53.984Z,6.33
2022-12-16T14:44:41.937Z,4.53
2022-12-16T14:47:36.407Z,7.23
2022-12-16T14:50:22.707Z,7.07
2022-12-16T14:53:08.126Z,6.33
2022-12-16T14:56:08.554Z,6.37
2022-12-16T14:58:54.058Z,5.60
2022-12-16T15:01:43.244Z,7.50
2022-12-16T15:04:35.618Z,7.17
2022-12-16T15:07:30.812Z,7.67
2022-12-16T15:10:18.046Z,7.00
2022-12-16T15:13:06.292Z,7.00
2022-12-16T15:15:57.161Z,6.47
2022-12-16T15:18:46.993Z,5.27
2022-12-16T15:21:33.549Z,7.30
2022-12-16T15:24:19.286Z,7.53
2022-12-16T15:27:04.508Z,5.63
2022-12-16T15:29:53.296Z,6.30
2022-12-16T15:32:48.121Z,6.83
2022-12-16T15:35:43.437Z,6.23
2022-12-16T15:38:40.210Z,7.80
2022-12-16T15:41:36.739Z,6.73
2022-12-16T15:44:22.357Z,7.90
2022-12-16T15:47:08.077Z,7.27
2022-12-16T15:50:02.123Z,7.63
2022-12-16T15:52:54.277Z,6.77
2022-12-16T15:55:48.609Z,6.83
2022-12-16T15:58:40.248Z,7.67
2022-12-16T16:01:26.794Z,7.40
2022-12-16T16:04:14.611Z,7.57
2022-12-16T16:07:04.950Z,7.93
2022-12-16T16:09:52.471Z,7.80
2022-12-16T16:12:43.545Z,6.77
2022-12-16T16:15:30.799Z,6.93
2022-12-16T16:18:19.358Z,8.27
2022-12-16T16:21:05.639Z,6.57
2022-12-16T16:23:51.026Z,7.63
2022-12-16T16:26:39.775Z,7.83
2022-12-16T16:29:28.873Z,7.07
2022-12-16T16:32:13.997Z,7.37
2022-12-16T16:34:59.515Z,7.40
2022-12-16T16:37:45.100Z,8.30
2022-12-16T16:40:37.167Z,6.87
2022-12-16T16:43:22.306Z,6.87
2022-12-16T16:46:13.049Z,7.37
2022-12-16T16:48:59.052Z,7.70
2022-12-16T16:51:44.368Z,7.47
2022-12-16T16:54:29.449Z,7.57
2022-12-16T16:57:15.187Z,7.63
2022-12-16T17:00:00.318Z,9.13
2022-12-16T17:02:47.401Z,7.77
2022-12-16T17:05:33.320Z,7.53
2022-12-16T17:08:18.651Z,8.07
2022-12-16T17:11:05.641Z,7.93
2022-12-16T17:13:51.001Z,6.87
2022-12-16T17:16:36.359Z,7.20
2022-12-16T17:19:23.380Z,7.03
2022-12-16T17:22:11.870Z,8.03
2022-12-16T17:24:57.484Z,7.10
2022-12-16T17:27:44.376Z,7.37
2022-12-16T17:30:34.117Z,7.73
2022-12-16T17:33:19.260Z,7.33
2022-12-16T17:36:08.277Z,7.37
2022-12-16T17:38:57.144Z,7.97
2022-12-16T17:41:42.381Z,7.87
2022-12-16T17:44:28.402Z,7.63
2022-12-16T17:47:13.512Z,7.70
2022-12-16T17:49:58.775Z,8.73
2022-12-16T17:52:46.108Z,7.93
2022-12-16T17:55:31.385Z,7.93
2022-12-16T17:58:16.742Z,8.17
2022-12-16T18:01:10.474Z,7.73
2022-12-16T18:03:56.316Z,8.20
2022-12-16T18:06:42.097Z,7.27
2022-12-16T18:09:29.009Z,7.50
2022-12-16T18:12:14.477Z,7.80
2022-12-16T18:14:59.953Z,7.27
2022-12-16T18:17:45.531Z,7.57
2022-12-16T18:20:30.865Z,7.00
2022-12-16T18:23:16.726Z,7.47
2022-12-16T18:26:03.652Z,7.70
2022-12-16T18:28:48.901Z,8.10
2022-12-16T18:31:34.443Z,7.67
2022-12-16T18:34:24.673Z,6.83
2022-12-16T18:37:10.071Z,7.07
2022-12-16T18:39:55.561Z,8.20
2022-12-16T18:42:42.149Z,7.67
2022-12-16T18:45:28.621Z,8.47
2022-12-16T18:48:13.939Z,6.70
2022-12-16T18:50:59.306Z,7.63
2022-12-16T18:53:44.999Z,8.73
2022-12-16T18:56:30.674Z,8.30
2022-12-16T18:59:17.884Z,7.97
2022-12-16T19:02:03.508Z,8.17
2022-12-16T19:04:49.040Z,8.40
2022-12-16T19:07:34.309Z,9.10
2022-12-16T19:10:20.024Z,8.90
2022-12-16T19:13:07.894Z,8.83
2022-12-16T19:15:55.446Z,9.20
2022-12-16T19:18:41.162Z,8.60
2022-12-16T19:21:28.368Z,8.27
2022-12-16T19:24:13.627Z,9.00
2022-12-16T19:26:59.643Z,7.80
2022-12-16T19:29:44.836Z,8.67
2022-12-16T19:32:31.896Z,8.77
2022-12-16T19:35:17.451Z,8.10
2022-12-16T19:38:02.828Z,8.13
2022-12-16T19:40:48.377Z,8.57
2022-12-16T19:43:34.808Z,8.60
2022-12-16T19:46:20.365Z,8.10
2022-12-16T19:49:07.208Z,8.93
2022-12-16T19:51:52.417Z,8.17
2022-12-16T19:54:41.802Z,7.63
2022-12-16T19:57:27.105Z,7.63
2022-12-16T20:00:12.575Z,8.60
2022-12-16T20:02:58.193Z,7.70
2022-12-16T20:05:45.088Z,7.40
2022-12-16T20:08:31.609Z,7.67
2022-12-16T20:11:19.266Z,8.20
2022-12-16T20:14:04.801Z,7.13
2022-12-16T20:16:51.764Z,8.47
2022-12-16T20:19:37.402Z,7.87
2022-12-16T20:22:35.584Z,7.53
2022-12-16T20:25:21.468Z,7.43
2022-12-16T20:28:06.813Z,8.13
2022-12-16T20:30:52.337Z,8.00
2022-12-16T20:33:42.079Z,8.40
2022-12-16T20:36:28.529Z,8.33
2022-12-16T20:39:15.793Z,8.33
2022-12-16T20:42:01.339Z,8.20
2022-12-16T20:44:47.227Z,8.00
2022-12-16T20:47:32.675Z,8.00
2022-12-16T20:50:18.148Z,8.70
2022-12-16T20:53:04.510Z,8.80
2022-12-16T20:55:51.940Z,9.23
2022-12-16T20:58:37.662Z,8.33
2022-12-16T21:01:24.109Z,9.20
2022-12-16T21:04:09.996Z,8.93
2022-12-16T21:06:56.099Z,8.40
2022-12-16T21:09:42.140Z,9.53
2022-12-16T21:12:29.267Z,8.77
2022-12-16T21:15:14.608Z,9.20
2022-12-16T21:18:00.364Z,9.80
2022-12-16T21:20:46.049Z,9.10
2022-12-16T21:23:31.535Z,9.87
2022-12-16T21:26:29.459Z,10.13
2022-12-16T21:29:16.191Z,10.73
2022-12-16T21:32:01.763Z,9.80
2022-12-16T21:34:47.422Z,9.50
2022-12-16T21:37:33.092Z,10.13
2022-12-16T21:40:18.570Z,8.70
2022-12-16T21:43:04.543Z,9.87
2022-12-16T21:45:51.176Z,9.43
2022-12-16T21:48:39.326Z,8.83
2022-12-16T21:51:24.784Z,10.67
2022-12-16T21:54:10.852Z,10.20
2022-12-16T21:56:56.727Z,10.07
2022-12-16T21:59:42.546Z,9.97
2022-12-16T22:02:31.104Z,9.93
2022-12-16T22:05:16.513Z,9.90
2022-12-16T22:08:02.451Z,9.97
2022-12-16T22:10:48.065Z,9.70
2022-12-16T22:13:33.827Z,10.00
2022-12-16T22:16:19.215Z,10.00
2022-12-16T22:19:06.012Z,9.20
2022-12-16T22:21:51.862Z,9.67
2022-12-16T22:24:37.249Z,10.27
2022-12-16T22:27:23.066Z,10.53
2022-12-16T22:30:08.401Z,10.23
2022-12-16T22:36:02.294Z,9.83
2022-12-16T22:38:50.543Z,10.00
2022-12-16T22:41:35.607Z,9.53
2022-12-16T22:44:21.326Z,9.93
2022-12-16T22:47:06.560Z,9.90
2022-12-16T22:49:54.185Z,10.40
2022-12-16T22:52:42.966Z,10.60
2022-12-16T22:55:28.404Z,10.53
2022-12-16T22:58:13.976Z,10.10
2022-12-16T23:00:59.318Z,10.33
2022-12-16T23:03:45.184Z,10.40
2022-12-16T23:06:29.666Z,11.50
2022-12-16T23:09:16.711Z,11.13
2022-12-16T23:12:02.030Z,9.97
2022-12-16T23:14:52.818Z,10.43
2022-12-16T23:17:39.039Z,10.43
2022-12-16T23:20:25.435Z,9.90
2022-12-16T23:23:12.687Z,10.77
2022-12-16T23:25:59.649Z,9.83
2022-12-16T23:28:44.899Z,10.80
2022-12-16T23:31:33.096Z,10.30
2022-12-16T23:34:18.922Z,10.93
2022-12-16T23:37:04.259Z,11.00
2022-12-16T23:39:49.570Z,9.87
2022-12-16T23:42:35.995Z,10.73
2022-12-16T23:45:21.231Z,8.97
2022-12-16T23:48:05.634Z,10.33
2022-12-16T23:50:51.197Z,10.50
2022-12-16T23:53:37.849Z,11.50
2022-12-16T23:56:23.886Z,9.63
2022-12-16T23:59:10.671Z,10.20
